createdAt,value
2023-01-19T00:15:48.774Z,100217.25
2023-01-19T09:58:45.483Z,99672.47
2023-01-19T10:10:21.534Z,99654.31
2023-01-19T10:28:51.093Z,99639.94
2023-01-19T10:35:52.641Z,99643.16
2023-01-19T10:39:28.208Z,99626.91
2023-01-19T10:51:23.477Z,99634.66
2023-01-19T10:54:00.137Z,99616.94
2023-01-19T10:56:32.394Z,99614.34
2023-01-19T10:59:03.319Z,99619.44
2023-01-19T11:01:36.005Z,99626.47
2023-01-19T11:04:22.565Z,99625.50
2023-01-19T11:06:52.362Z,99639.13
2023-01-19T11:09:23.601Z,99637.31
2023-01-19T11:11:54.327Z,99630.28
2023-01-19T11:14:24.948Z,99639.75
2023-01-19T11:16:56.552Z,99649.81
2023-01-19T11:19:30.309Z,99641.44
2023-01-19T11:22:22.479Z,99632.66
2023-01-19T11:24:51.254Z,99631.03
2023-01-19T11:27:21.226Z,99627.72
2023-01-19T11:29:55.951Z,99629.75
2023-01-19T11:32:25.239Z,99627.44
2023-01-19T11:34:53.538Z,99625.63
2023-01-19T11:37:30.606Z,99620.44
2023-01-19T11:40:03.014Z,99616.56
2023-01-19T11:42:34.772Z,99619.16
2023-01-19T11:45:08.854Z,99626.00
2023-01-19T11:47:42.596Z,99635.84
2023-01-19T11:50:16.796Z,99619.56
2023-01-19T11:52:51.306Z,99616.91
2023-01-19T11:55:32.481Z,99619.94
2023-01-19T11:58:01.232Z,99624.03
2023-01-19T12:00:36.799Z,99621.53
2023-01-19T12:03:12.662Z,99623.78
2023-01-19T12:05:43.139Z,99626.75
2023-01-19T12:08:17.097Z,99622.06
2023-01-19T12:10:48.057Z,99631.31
2023-01-19T12:13:21.918Z,99633.22
2023-01-19T12:15:54.597Z,99640.19
2023-01-19T12:18:26.073Z,99638.75
2023-01-19T12:20:58.993Z,99642.09
2023-01-19T12:40:31.638Z,99634.25
2023-01-19T12:43:02.916Z,99633.63
2023-01-19T12:45:33.380Z,99640.28
2023-01-19T12:48:03.161Z,99642.00
2023-01-19T12:50:36.218Z,99641.59
2023-01-19T12:53:08.456Z,99640.25
2023-01-19T12:55:46.766Z,99640.00
2023-01-19T12:58:18.937Z,99648.81
2023-01-19T13:00:49.602Z,99653.44
2023-01-19T13:03:46.653Z,99638.94
2023-01-19T13:06:15.002Z,99643.16
2023-01-19T13:09:29.093Z,99636.38
2023-01-19T13:12:22.754Z,99644.91
2023-01-19T13:14:51.507Z,99641.53
2023-01-19T13:17:28.015Z,99644.91
2023-01-19T13:20:18.763Z,99649.88
2023-01-19T13:23:17.558Z,99660.91
2023-01-19T13:25:50.427Z,99656.25
2023-01-19T13:28:26.750Z,99655.34
2023-01-19T13:30:59.272Z,99670.53
2023-01-19T13:33:29.016Z,99663.69
2023-01-19T13:35:59.662Z,99662.63
2023-01-19T13:38:28.854Z,99660.91
2023-01-19T13:41:00.966Z,99665.69
2023-01-19T13:43:37.592Z,99656.81
2023-01-19T13:46:06.999Z,99674.84
2023-01-19T13:48:35.433Z,99669.53
2023-01-19T13:51:06.087Z,99684.53
2023-01-19T13:53:36.684Z,99685.22
2023-01-19T13:56:22.211Z,99683.19
2023-01-19T13:59:10.355Z,99689.50
2023-01-19T14:01:41.182Z,99689.63
2023-01-19T14:04:25.953Z,99685.13
2023-01-19T14:06:55.841Z,99676.13
2023-01-19T14:09:24.198Z,99696.31
2023-01-19T14:12:13.064Z,99702.97
2023-01-19T14:14:43.953Z,99705.09
2023-01-19T14:17:24.771Z,99714.75
2023-01-19T14:19:55.109Z,99735.22
2023-01-19T14:22:41.460Z,99725.22
2023-01-19T14:25:29.231Z,99745.56
2023-01-19T14:28:31.396Z,99753.31
2023-01-19T14:31:03.434Z,99753.03
2023-01-19T14:33:36.365Z,99757.56
2023-01-19T14:36:12.916Z,99761.47
2023-01-19T14:38:44.975Z,99769.03
2023-01-19T14:41:14.797Z,99776.16
2023-01-19T14:43:46.033Z,99780.19
2023-01-19T14:46:19.564Z,99784.47
2023-01-19T14:48:48.976Z,99780.59
2023-01-19T14:51:19.985Z,99787.94
2023-01-19T14:53:51.523Z,99798.34
2023-01-19T14:56:28.415Z,99795.91
2023-01-19T14:58:57.569Z,99799.63
2023-01-19T15:01:31.113Z,99802.28
2023-01-19T15:03:59.957Z,99805.66
2023-01-19T15:06:28.417Z,99814.97
2023-01-19T15:08:57.299Z,99818.63
2023-01-19T15:11:28.244Z,99838.78
2023-01-19T15:13:56.809Z,99843.19
2023-01-19T15:16:27.663Z,99840.31
2023-01-19T15:18:56.418Z,99842.34
2023-01-19T15:21:26.966Z,99846.41
2023-01-19T15:23:57.096Z,99863.91
2023-01-19T15:26:30.064Z,99878.25
2023-01-19T15:28:58.650Z,99888.09
2023-01-19T15:31:28.719Z,99886.44
2023-01-19T15:34:10.330Z,99892.44
2023-01-19T15:36:40.061Z,99886.56
2023-01-19T15:39:29.486Z,99898.75
2023-01-19T15:42:00.942Z,99898.69
2023-01-19T15:44:36.602Z,99898.75
2023-01-19T15:47:29.601Z,99907.34
2023-01-19T15:51:35.789Z,99916.75
2023-01-19T15:54:04.413Z,99930.59
2023-01-19T15:56:33.286Z,99945.16
2023-01-19T15:59:16.140Z,99947.81
2023-01-19T16:02:06.110Z,99958.44
2023-01-19T16:04:50.941Z,99961.09
2023-01-19T16:07:19.687Z,99975.91
2023-01-19T16:10:04.291Z,99985.34
2023-01-19T16:12:41.172Z,99994.78
2023-01-19T16:15:10.730Z,99999.19
2023-01-19T16:17:39.768Z,100000.16
2023-01-19T16:20:14.503Z,100016.50
2023-01-19T16:22:43.033Z,100020.03
2023-01-19T16:25:12.818Z,100023.56
2023-01-19T16:27:41.262Z,100014.22
2023-01-19T16:30:12.867Z,100029.69
2023-01-19T16:32:41.851Z,100032.31
2023-01-19T16:35:11.719Z,100034.78
2023-01-19T16:37:40.007Z,100040.66
2023-01-19T16:40:09.311Z,100044.16
2023-01-19T16:42:39.234Z,100043.44
2023-01-19T16:45:08.264Z,100053.81
2023-01-19T16:47:36.615Z,100057.28
2023-01-19T16:50:05.411Z,100060.75
2023-01-19T16:52:35.072Z,100071.97
2023-01-19T16:55:07.079Z,100083.13
2023-01-19T16:57:35.408Z,100102.84
2023-01-19T17:00:05.519Z,100089.19
2023-01-19T17:02:33.802Z,100104.72
2023-01-19T17:05:02.249Z,100122.06
2023-01-19T17:07:30.601Z,100114.53
2023-01-19T17:10:00.350Z,100126.69
2023-01-19T17:12:30.157Z,100137.09
2023-01-19T17:15:00.343Z,100144.16
2023-01-19T17:17:28.641Z,100139.16
2023-01-19T17:19:56.940Z,100147.84
2023-01-19T17:22:25.175Z,100158.19
2023-01-19T17:24:53.494Z,100154.88
2023-01-19T17:27:23.158Z,100167.84
2023-01-19T17:29:51.448Z,100176.59
2023-01-19T17:32:19.872Z,100176.75
2023-01-19T17:34:50.529Z,100182.06
2023-01-19T17:37:18.840Z,100190.75
2023-01-19T17:39:47.149Z,100202.81
2023-01-19T17:42:15.425Z,100206.38
2023-01-19T17:44:45.146Z,100203.84
2023-01-19T17:47:13.691Z,100215.94
2023-01-19T17:49:41.991Z,100219.44
2023-01-19T17:52:10.739Z,100234.06
2023-01-19T17:54:39.085Z,100236.72
2023-01-19T17:57:07.381Z,100238.47
2023-01-19T17:59:35.680Z,100247.88
2023-01-19T18:02:05.482Z,100257.19
2023-01-19T18:04:33.755Z,100277.63
2023-01-19T18:07:02.022Z,100280.06
2023-01-19T18:09:30.439Z,100286.78
2023-01-19T18:11:59.098Z,100283.16
2023-01-19T18:14:27.375Z,100278.78
2023-01-19T18:16:55.676Z,100288.16
2023-01-19T18:19:25.444Z,100302.69
2023-01-19T18:21:53.693Z,100303.56
2023-01-19T18:24:22.001Z,100312.94
2023-01-19T18:26:50.264Z,100312.94
2023-01-19T18:29:19.425Z,100320.63
2023-01-19T18:31:47.699Z,100325.00
2023-01-19T18:34:15.918Z,100325.03
2023-01-19T18:36:45.732Z,100337.06
2023-01-19T18:39:14.183Z,100334.50
2023-01-19T18:41:42.839Z,100348.09
2023-01-19T18:44:11.819Z,100350.63
2023-01-19T18:46:40.612Z,100359.19
2023-01-19T18:49:09.779Z,100365.25
2023-01-19T18:51:39.661Z,100369.63
2023-01-19T18:54:10.935Z,100367.13
2023-01-19T18:56:39.542Z,100373.19
2023-01-19T18:59:07.837Z,100384.41
2023-01-19T19:01:36.622Z,100393.03
2023-01-19T19:04:05.053Z,100394.81
2023-01-19T19:06:34.245Z,100399.16
2023-01-19T19:09:03.494Z,100406.09
2023-01-19T19:11:33.273Z,100408.72
2023-01-19T19:14:03.475Z,100419.06
2023-01-19T19:16:35.113Z,100413.94
2023-01-19T19:19:04.291Z,100425.13
2023-01-19T19:21:32.549Z,100424.28
2023-01-19T19:24:00.924Z,100434.56
2023-01-19T19:26:29.517Z,100430.34
2023-01-19T19:28:59.212Z,100437.19
2023-01-19T19:31:27.763Z,100439.81
2023-01-19T19:33:57.298Z,100440.69
2023-01-19T19:36:26.897Z,100440.72
2023-01-19T19:38:55.611Z,100450.16
2023-01-19T19:41:27.162Z,100453.63
2023-01-19T19:43:56.254Z,100453.66
2023-01-19T19:46:27.860Z,100452.81
2023-01-19T19:48:56.205Z,100463.06
2023-01-19T19:51:27.216Z,100465.66
2023-01-19T19:53:57.316Z,100472.50
2023-01-19T19:56:28.117Z,100479.31
2023-01-19T19:58:58.210Z,100483.63
2023-01-19T20:01:32.625Z,100498.13
2023-01-19T20:04:07.326Z,100493.88
2023-01-19T20:06:38.961Z,100502.47
2023-01-19T20:09:09.028Z,100505.06
2023-01-19T20:11:37.458Z,100510.22
2023-01-19T20:14:07.126Z,100522.22
2023-01-19T20:16:37.827Z,100521.38
2023-01-19T20:19:18.670Z,100531.59
2023-01-19T20:22:07.677Z,100540.13
2023-01-19T20:24:36.175Z,100540.97
2023-01-19T20:27:04.538Z,100550.38
2023-01-19T20:29:32.897Z,100546.09
2023-01-19T20:32:02.582Z,100554.59
2023-01-19T20:34:33.716Z,100561.44
2023-01-19T20:37:04.070Z,100562.31
2023-01-19T20:39:34.743Z,100572.53
2023-01-19T20:42:03.487Z,100575.97
2023-01-19T20:44:31.749Z,100588.78
2023-01-19T20:47:00.337Z,100603.25
2023-01-19T20:49:30.119Z,100617.78
2023-01-19T20:51:58.482Z,100609.25
2023-01-19T20:54:30.023Z,100622.03
2023-01-19T20:56:59.872Z,100625.41
2023-01-19T20:59:28.422Z,100632.25
2023-01-19T21:01:56.862Z,100627.09
2023-01-19T21:04:25.213Z,100625.38
2023-01-19T21:06:55.036Z,100633.91
2023-01-19T21:09:23.315Z,100633.91
2023-01-19T21:11:51.946Z,100635.59
2023-01-19T21:14:20.295Z,100638.13
2023-01-19T21:16:48.615Z,100650.94
2023-01-19T21:19:17.346Z,100655.25
2023-01-19T21:21:45.932Z,100659.53
2023-01-19T21:24:15.612Z,100666.34
2023-01-19T21:26:43.881Z,100668.06
2023-01-19T21:29:14.173Z,100677.47
2023-01-19T21:31:42.887Z,100674.06
2023-01-19T21:34:11.396Z,100685.16
2023-01-19T21:36:39.883Z,100692.81
2023-01-19T21:39:09.206Z,100699.69
2023-01-19T21:41:40.424Z,100711.59
2023-01-19T21:44:08.789Z,100711.59
2023-01-19T21:46:37.153Z,100716.72
2023-01-19T21:49:08.166Z,100715.00
2023-01-19T21:51:38.081Z,100725.22
2023-01-19T21:54:07.887Z,100730.34
2023-01-19T21:56:38.081Z,100743.13
2023-01-19T21:59:07.845Z,100745.69
2023-01-19T22:01:36.649Z,100745.69
2023-01-19T22:04:05.238Z,100741.44
2023-01-19T22:06:33.590Z,100739.72
2023-01-19T22:09:01.925Z,100750.75
2023-01-19T22:11:30.406Z,100751.63
2023-01-19T22:13:59.837Z,100751.59
2023-01-19T22:16:30.556Z,100753.28
2023-01-19T22:19:01.284Z,100755.84
2023-01-19T22:21:32.026Z,100762.69
2023-01-19T22:24:02.100Z,100761.81
2023-01-19T22:26:32.161Z,100768.63
2023-01-19T22:29:02.718Z,100760.09
2023-01-19T22:31:32.861Z,100766.03
2023-01-19T22:34:01.262Z,100766.03
2023-01-19T22:36:31.801Z,100772.03
2023-01-19T22:39:01.976Z,100768.63
2023-01-19T22:41:31.716Z,100771.16
2023-01-19T22:44:01.236Z,100777.09
2023-01-19T22:46:31.295Z,100793.31
2023-01-19T22:49:01.604Z,100795.00
2023-01-19T22:51:31.424Z,100797.53
2023-01-19T22:54:00.114Z,100806.06
2023-01-19T22:56:30.767Z,100813.75
2023-01-19T22:59:00.359Z,100823.97
2023-01-19T23:01:30.808Z,100818.88
2023-01-19T23:04:02.382Z,100823.09
2023-01-19T23:06:33.565Z,100822.22
2023-01-19T23:09:03.704Z,100823.06
2023-01-19T23:11:36.128Z,100836.72
2023-01-19T23:14:05.067Z,100834.16
2023-01-19T23:16:33.316Z,100846.97
2023-01-19T23:19:03.086Z,100845.25
2023-01-19T23:21:32.610Z,100845.22
2023-01-19T23:24:02.765Z,100846.97
2023-01-19T23:26:38.337Z,100857.19
2023-01-19T23:29:09.452Z,100867.38
2023-01-19T23:31:39.930Z,100878.44
2023-01-19T23:34:12.209Z,100875.91
2023-01-19T23:36:41.944Z,100875.88
2023-01-19T23:39:14.654Z,100875.00
2023-01-19T23:41:43.000Z,100881.00
2023-01-19T23:44:11.537Z,100888.66
2023-01-19T23:46:40.133Z,100884.41
2023-01-19T23:49:09.815Z,100881.84
2023-01-19T23:51:38.071Z,100895.50
2023-01-19T23:54:06.477Z,100892.94
2023-01-19T23:56:36.318Z,100885.25
2023-01-19T23:59:06.799Z,100892.09
